createdAt,value
2022-10-23T00:00:20.828Z,8.1
2022-10-23T00:01:20.781Z,8.1
2022-10-23T00:02:20.749Z,8.1
2022-10-23T00:03:20.763Z,8.2
2022-10-23T00:04:20.732Z,8.2
2022-10-23T00:05:20.756Z,8.2
2022-10-23T00:06:20.731Z,8.2
2022-10-23T00:07:20.739Z,8.3
2022-10-23T00:08:20.743Z,8.3
2022-10-23T00:09:20.729Z,8.3
2022-10-23T00:10:20.750Z,8.3
2022-10-23T00:11:20.741Z,8.3
2022-10-23T00:12:20.739Z,8.3
2022-10-23T00:13:20.734Z,8.3
2022-10-23T00:14:20.736Z,8.3
2022-10-23T00:15:20.767Z,8.3
2022-10-23T00:16:20.744Z,8.3
2022-10-23T00:17:20.739Z,8.3
2022-10-23T00:18:20.742Z,8.4
2022-10-23T00:19:20.765Z,8.4
2022-10-23T00:20:20.755Z,8.4
2022-10-23T00:21:20.730Z,8.4
2022-10-23T00:22:20.724Z,8.4
2022-10-23T00:23:20.742Z,8.4
2022-10-23T00:24:20.739Z,8.4
2022-10-23T00:25:20.764Z,8.4
2022-10-23T00:26:20.757Z,8.3
2022-10-23T00:27:20.744Z,8.2
2022-10-23T00:28:20.743Z,8.1
2022-10-23T00:29:20.752Z,8.1
2022-10-23T00:30:20.752Z,8
2022-10-23T00:31:20.744Z,7.9
2022-10-23T00:32:20.770Z,7.8
2022-10-23T00:33:20.748Z,7.7
2022-10-23T00:34:20.743Z,7.6
2022-10-23T00:35:20.781Z,7.6
2022-10-23T00:36:20.755Z,7.5
2022-10-23T00:37:20.750Z,7.5
2022-10-23T00:38:20.737Z,7.5
2022-10-23T00:39:20.747Z,7.6
2022-10-23T00:40:20.781Z,7.6
2022-10-23T00:41:20.763Z,7.6
2022-10-23T00:42:20.742Z,7.7
2022-10-23T00:43:21.023Z,7.7
2022-10-23T00:44:20.748Z,7.7
2022-10-23T00:45:20.768Z,7.7
2022-10-23T00:46:20.755Z,7.8
2022-10-23T00:47:20.752Z,7.8
2022-10-23T00:48:20.739Z,7.8
2022-10-23T00:49:20.750Z,7.8
2022-10-23T00:50:20.760Z,7.8
2022-10-23T00:51:20.762Z,7.8
2022-10-23T00:52:20.745Z,7.8
2022-10-23T00:53:20.753Z,7.9
2022-10-23T00:54:24.942Z,7.9
2022-10-23T00:55:20.754Z,7.9
2022-10-23T00:56:20.749Z,7.9
2022-10-23T00:57:20.794Z,7.9
2022-10-23T00:58:20.748Z,7.9
2022-10-23T00:59:20.755Z,7.8
2022-10-23T01:00:20.770Z,7.8
2022-10-23T01:01:20.884Z,7.8
2022-10-23T01:02:20.840Z,7.7
2022-10-23T01:03:20.754Z,7.6
2022-10-23T01:04:20.745Z,7.6
2022-10-23T01:05:20.779Z,7.6
2022-10-23T01:06:20.750Z,7.6
2022-10-23T01:07:20.791Z,7.5
2022-10-23T01:08:20.756Z,7.5
2022-10-23T01:09:20.750Z,7.6
2022-10-23T01:10:20.765Z,7.6
2022-10-23T01:11:20.756Z,7.6
2022-10-23T01:12:20.759Z,7.6
2022-10-23T01:13:20.751Z,7.7
2022-10-23T01:14:20.985Z,7.7
2022-10-23T01:15:20.760Z,7.7
2022-10-23T01:16:20.746Z,7.8
2022-10-23T01:17:20.761Z,7.8
2022-10-23T01:18:20.758Z,7.9
2022-10-23T01:19:20.745Z,7.9
2022-10-23T01:20:20.766Z,7.9
2022-10-23T01:21:20.760Z,7.9
2022-10-23T01:22:20.815Z,8
2022-10-23T01:23:20.782Z,8
2022-10-23T01:24:20.768Z,8
2022-10-23T01:25:20.757Z,8
2022-10-23T01:26:20.757Z,8
2022-10-23T01:27:20.763Z,8
2022-10-23T01:28:20.759Z,8
2022-10-23T01:29:20.779Z,8
2022-10-23T01:30:20.770Z,8
2022-10-23T01:31:20.764Z,8
2022-10-23T01:32:20.759Z,8
2022-10-23T01:33:20.758Z,8
2022-10-23T01:34:20.744Z,8
2022-10-23T01:35:20.771Z,8
2022-10-23T01:36:20.757Z,8
2022-10-23T01:37:20.773Z,8
2022-10-23T01:38:20.753Z,8
2022-10-23T01:39:20.809Z,8
2022-10-23T01:40:20.801Z,8
2022-10-23T01:41:20.767Z,8
2022-10-23T01:42:20.749Z,8
2022-10-23T01:43:20.766Z,8
2022-10-23T01:44:20.754Z,8
2022-10-23T01:45:20.765Z,7.9
2022-10-23T01:46:20.759Z,7.9
2022-10-23T01:48:20.771Z,7.8
2022-10-23T01:49:20.754Z,7.7
2022-10-23T01:50:20.765Z,7.7
2022-10-23T01:51:20.771Z,7.6
2022-10-23T01:52:20.767Z,7.5
2022-10-23T01:53:20.775Z,7.5
2022-10-23T01:54:20.773Z,7.4
2022-10-23T01:55:20.791Z,7.4
2022-10-23T01:56:20.765Z,7.3
2022-10-23T01:57:20.765Z,7.3
2022-10-23T01:58:20.770Z,7.2
2022-10-23T01:59:20.761Z,7.2
2022-10-23T02:00:20.774Z,7.2
2022-10-23T02:01:20.903Z,7.2
2022-10-23T02:02:20.870Z,7.2
2022-10-23T02:03:20.760Z,7.2
2022-10-23T02:04:20.766Z,7.2
2022-10-23T02:05:20.772Z,7.2
2022-10-23T02:06:20.776Z,7.2
2022-10-23T02:07:20.759Z,7.2
2022-10-23T02:08:20.760Z,7.2
2022-10-23T02:09:20.766Z,7.2
2022-10-23T02:10:20.784Z,7.2
2022-10-23T02:11:20.797Z,7.3
2022-10-23T02:12:20.818Z,7.3
2022-10-23T02:13:20.775Z,7.3
2022-10-23T02:14:20.764Z,7.4
2022-10-23T02:15:20.766Z,7.4
2022-10-23T02:16:20.779Z,7.5
2022-10-23T02:17:20.754Z,7.5
2022-10-23T02:18:20.773Z,7.5
2022-10-23T02:19:20.767Z,7.5
2022-10-23T02:20:20.786Z,7.5
2022-10-23T02:21:20.779Z,7.5
2022-10-23T02:22:20.771Z,7.5
2022-10-23T02:23:20.781Z,7.5
2022-10-23T02:24:20.762Z,7.5
2022-10-23T02:25:20.779Z,7.6
2022-10-23T02:26:20.768Z,7.6
2022-10-23T02:27:20.795Z,7.5
2022-10-23T02:28:20.773Z,7.5
2022-10-23T02:29:20.754Z,7.5
2022-10-23T02:30:20.793Z,7.5
2022-10-23T02:31:20.780Z,7.5
2022-10-23T02:32:20.773Z,7.4
2022-10-23T02:33:20.778Z,7.4
2022-10-23T02:34:20.775Z,7.3
2022-10-23T02:35:20.793Z,7.3
2022-10-23T02:36:20.802Z,7.2
2022-10-23T02:38:20.789Z,7.1
2022-10-23T02:39:21.059Z,7.1
2022-10-23T02:40:20.805Z,7.1
2022-10-23T02:41:20.775Z,7
2022-10-23T02:42:20.776Z,7
2022-10-23T02:43:20.799Z,7
2022-10-23T02:44:20.787Z,6.9
2022-10-23T02:45:20.849Z,6.9
2022-10-23T02:46:20.778Z,6.9
2022-10-23T02:47:20.778Z,6.9
2022-10-23T02:48:20.770Z,6.9
2022-10-23T02:49:20.789Z,6.9
2022-10-23T02:50:20.802Z,6.9
2022-10-23T02:51:20.780Z,6.9
2022-10-23T02:52:20.786Z,6.9
2022-10-23T02:53:20.786Z,6.9
2022-10-23T02:54:20.791Z,6.9
2022-10-23T02:55:20.781Z,6.9
2022-10-23T02:56:20.793Z,6.9
2022-10-23T02:57:20.778Z,6.9
2022-10-23T02:58:20.773Z,6.9
2022-10-23T02:59:20.804Z,6.9
2022-10-23T03:00:20.787Z,6.8
2022-10-23T03:01:20.870Z,6.8
2022-10-23T03:02:20.844Z,6.7
2022-10-23T03:03:20.785Z,6.7
2022-10-23T03:04:20.795Z,6.7
2022-10-23T03:05:20.818Z,6.7
2022-10-23T03:06:20.787Z,6.6
2022-10-23T03:07:20.814Z,6.6
2022-10-23T03:08:20.790Z,6.6
2022-10-23T03:09:20.788Z,6.6
2022-10-23T03:10:20.798Z,6.6
2022-10-23T03:11:20.787Z,6.6
2022-10-23T03:12:20.796Z,6.6
2022-10-23T03:13:20.784Z,6.6
2022-10-23T03:14:20.786Z,6.6
2022-10-23T03:15:20.834Z,6.6
2022-10-23T03:16:20.783Z,6.6
2022-10-23T03:17:20.801Z,6.6
2022-10-23T03:18:20.795Z,6.7
2022-10-23T03:19:20.801Z,6.7
2022-10-23T03:20:20.819Z,6.7
2022-10-23T03:21:20.791Z,6.8
2022-10-23T03:22:20.797Z,6.8
2022-10-23T03:23:20.793Z,6.8
2022-10-23T03:24:20.785Z,6.9
2022-10-23T03:25:20.813Z,6.9
2022-10-23T03:26:20.793Z,6.9
2022-10-23T03:27:20.833Z,7
2022-10-23T03:28:20.805Z,7
2022-10-23T03:29:20.812Z,7
2022-10-23T03:30:20.793Z,7
2022-10-23T03:31:20.836Z,7
2022-10-23T03:32:20.790Z,7.1
2022-10-23T03:33:20.800Z,7.1
2022-10-23T03:34:20.802Z,7.1
2022-10-23T03:35:20.822Z,7.1
2022-10-23T03:36:20.814Z,7.2
2022-10-23T03:37:20.804Z,7.2
2022-10-23T03:38:20.829Z,7.2
2022-10-23T03:39:20.801Z,7.2
2022-10-23T03:40:20.881Z,7.3
2022-10-23T03:41:20.822Z,7.3
2022-10-23T03:42:20.820Z,7.3
2022-10-23T03:43:20.795Z,7.3
2022-10-23T03:44:20.828Z,7.3
2022-10-23T03:45:20.816Z,7.3
2022-10-23T03:46:20.804Z,7.3
2022-10-23T03:47:20.844Z,7.4
2022-10-23T03:48:20.827Z,7.4
2022-10-23T03:49:20.812Z,7.4
2022-10-23T03:50:20.818Z,7.4
2022-10-23T03:51:20.813Z,7.4
2022-10-23T03:52:20.857Z,7.4
2022-10-23T03:53:20.815Z,7.4
2022-10-23T03:54:20.823Z,7.4
2022-10-23T03:55:20.821Z,7.4
2022-10-23T03:56:20.814Z,7.4
2022-10-23T03:57:20.809Z,7.4
2022-10-23T03:58:20.801Z,7.4
2022-10-23T03:59:20.825Z,7.3
2022-10-23T04:00:20.832Z,7.3
2022-10-23T04:01:20.885Z,7.3
2022-10-23T04:02:20.961Z,7.3
2022-10-23T04:03:20.861Z,7.3
2022-10-23T04:04:20.837Z,7.2
2022-10-23T04:05:20.828Z,7.2
2022-10-23T04:06:20.814Z,7.2
2022-10-23T04:07:20.817Z,7.1
2022-10-23T04:08:20.817Z,7.1
2022-10-23T04:09:20.817Z,7
2022-10-23T04:10:20.850Z,7
2022-10-23T04:11:20.843Z,7
2022-10-23T04:12:20.823Z,6.9
2022-10-23T04:13:20.824Z,6.9
2022-10-23T04:14:20.834Z,6.9
2022-10-23T04:15:20.825Z,6.8
2022-10-23T04:16:20.822Z,6.8
2022-10-23T04:17:20.866Z,6.8
2022-10-23T04:18:20.858Z,6.7
2022-10-23T04:19:20.854Z,6.7
2022-10-23T04:20:20.839Z,6.7
2022-10-23T04:21:20.824Z,6.7
2022-10-23T04:22:23.487Z,6.7
2022-10-23T04:23:20.822Z,6.7
2022-10-23T04:24:20.832Z,6.7
2022-10-23T04:25:20.849Z,6.6
2022-10-23T04:26:20.847Z,6.6
2022-10-23T04:27:20.852Z,6.6
2022-10-23T04:28:20.835Z,6.6
2022-10-23T04:29:20.827Z,6.6
2022-10-23T04:30:20.837Z,6.6
2022-10-23T04:31:20.839Z,6.7
2022-10-23T04:32:20.838Z,6.7
2022-10-23T04:33:20.852Z,6.7
2022-10-23T04:34:20.851Z,6.8
2022-10-23T04:35:20.894Z,6.8
2022-10-23T04:36:20.850Z,6.9
2022-10-23T04:37:20.841Z,6.9
2022-10-23T04:38:20.848Z,7
2022-10-23T04:39:20.840Z,7
2022-10-23T04:40:20.854Z,7
2022-10-23T04:41:20.837Z,7
2022-10-23T04:42:20.927Z,7
2022-10-23T04:43:20.843Z,7
2022-10-23T04:44:20.860Z,6.9
2022-10-23T04:45:20.870Z,6.9
2022-10-23T04:46:20.863Z,6.9
2022-10-23T04:47:20.845Z,6.9
2022-10-23T04:48:22.443Z,6.9
2022-10-23T04:49:20.848Z,6.9
2022-10-23T04:50:20.861Z,6.9
2022-10-23T04:51:20.878Z,6.9
2022-10-23T04:52:20.853Z,6.9
2022-10-23T04:53:20.871Z,6.9
2022-10-23T04:54:20.851Z,6.9
2022-10-23T04:55:20.859Z,6.9
2022-10-23T04:56:20.851Z,6.9
2022-10-23T04:57:20.854Z,6.9
2022-10-23T04:58:20.859Z,6.9
2022-10-23T04:59:21.078Z,6.9
2022-10-23T05:00:20.870Z,6.9
2022-10-23T05:01:20.917Z,6.9
2022-10-23T05:02:20.874Z,6.9
2022-10-23T05:03:20.850Z,6.9
2022-10-23T05:04:20.873Z,6.9
2022-10-23T05:05:20.880Z,6.9
2022-10-23T05:06:20.852Z,6.9
2022-10-23T05:08:20.866Z,6.9
2022-10-23T05:09:20.863Z,6.9
2022-10-23T05:10:20.880Z,6.9
2022-10-23T05:11:20.894Z,6.9
2022-10-23T05:12:20.871Z,6.9
2022-10-23T05:13:20.860Z,6.9
2022-10-23T05:14:22.105Z,6.9
2022-10-23T05:15:20.867Z,6.9
2022-10-23T05:16:20.871Z,6.8
2022-10-23T05:17:20.858Z,6.8
2022-10-23T05:18:20.867Z,6.8
2022-10-23T05:19:23.283Z,6.8
2022-10-23T05:20:20.865Z,6.8
2022-10-23T05:21:20.868Z,6.8
2022-10-23T05:22:20.858Z,6.8
2022-10-23T05:23:20.891Z,6.8
2022-10-23T05:24:20.866Z,6.8
2022-10-23T05:25:20.893Z,6.8
2022-10-23T05:26:20.866Z,6.8
2022-10-23T05:27:20.857Z,6.8
2022-10-23T05:28:20.862Z,6.8
2022-10-23T05:29:20.883Z,6.8
2022-10-23T05:30:20.885Z,6.8
2022-10-23T05:31:20.860Z,6.8
2022-10-23T05:33:20.872Z,6.8
2022-10-23T05:34:20.883Z,6.8
2022-10-23T05:35:20.889Z,6.8
2022-10-23T05:36:20.880Z,6.8
2022-10-23T05:37:20.874Z,6.8
2022-10-23T05:38:20.864Z,6.8
2022-10-23T05:39:20.895Z,6.9
2022-10-23T05:40:20.890Z,6.9
2022-10-23T05:41:20.878Z,6.9
2022-10-23T05:42:20.872Z,6.9
2022-10-23T05:43:20.877Z,6.9
2022-10-23T05:44:20.882Z,6.9
2022-10-23T05:45:20.891Z,6.9
2022-10-23T05:46:20.881Z,6.9
2022-10-23T05:47:20.878Z,6.9
2022-10-23T05:48:34.154Z,6.8
2022-10-23T05:49:20.883Z,6.8
2022-10-23T05:50:20.898Z,6.8
2022-10-23T05:51:20.885Z,6.8
2022-10-23T05:52:20.905Z,6.8
2022-10-23T05:53:20.894Z,6.8
2022-10-23T05:54:20.888Z,6.8
2022-10-23T05:55:20.935Z,6.8
2022-10-23T05:56:20.893Z,6.8
2022-10-23T05:57:20.899Z,6.8
2022-10-23T05:58:20.882Z,6.7
2022-10-23T05:59:22.161Z,6.7
2022-10-23T06:00:20.896Z,6.7
2022-10-23T06:01:20.960Z,6.7
2022-10-23T06:02:20.973Z,6.7
2022-10-23T06:03:20.905Z,6.7
2022-10-23T06:04:20.909Z,6.7
2022-10-23T06:05:20.913Z,6.8
2022-10-23T06:06:20.892Z,6.7
2022-10-23T06:07:20.898Z,6.7
2022-10-23T06:08:20.914Z,6.7
2022-10-23T06:09:20.895Z,6.7
2022-10-23T06:10:20.910Z,6.7
2022-10-23T06:11:20.932Z,6.7
2022-10-23T06:12:20.905Z,6.7
2022-10-23T06:13:20.909Z,6.8
2022-10-23T06:14:20.909Z,6.8
2022-10-23T06:15:20.908Z,6.8
2022-10-23T06:16:20.893Z,6.8
2022-10-23T06:17:20.908Z,6.8
2022-10-23T06:18:20.908Z,6.8
2022-10-23T06:19:20.890Z,6.8
2022-10-23T06:20:23.100Z,6.8
2022-10-23T06:21:20.892Z,6.8
2022-10-23T06:22:20.967Z,6.8
2022-10-23T06:23:20.913Z,6.8
2022-10-23T06:24:20.911Z,6.8
2022-10-23T06:25:20.903Z,6.8
2022-10-23T06:26:20.912Z,6.8
2022-10-23T06:27:20.919Z,6.8
2022-10-23T06:28:20.925Z,6.9
2022-10-23T06:29:20.895Z,6.9
2022-10-23T06:30:20.921Z,6.9
2022-10-23T06:31:20.903Z,6.9
2022-10-23T06:32:20.909Z,6.9
2022-10-23T06:33:20.895Z,6.9
2022-10-23T06:34:20.914Z,6.9
2022-10-23T06:35:20.911Z,6.9
2022-10-23T06:36:20.898Z,6.9
2022-10-23T06:37:20.902Z,6.9
2022-10-23T06:38:20.897Z,6.9
2022-10-23T06:39:20.939Z,6.8
2022-10-23T06:40:20.918Z,6.8
2022-10-23T06:41:20.936Z,6.8
2022-10-23T06:42:20.937Z,6.8
2022-10-23T06:43:20.942Z,6.8
2022-10-23T06:44:20.910Z,6.8
2022-10-23T06:45:20.909Z,6.8
2022-10-23T06:46:20.912Z,6.8
2022-10-23T06:47:20.913Z,6.8
2022-10-23T06:48:20.901Z,6.9
2022-10-23T06:49:20.899Z,6.9
2022-10-23T06:50:20.923Z,6.9
2022-10-23T06:51:20.918Z,6.9
2022-10-23T06:52:41.996Z,6.9
2022-10-23T06:53:20.943Z,6.9
2022-10-23T06:54:20.935Z,7
2022-10-23T06:55:20.941Z,7
2022-10-23T06:56:20.921Z,7
2022-10-23T06:57:20.910Z,7
2022-10-23T06:58:20.933Z,7
2022-10-23T06:59:20.951Z,7.1
2022-10-23T07:00:20.921Z,7.1
2022-10-23T07:01:21.007Z,7.1
2022-10-23T07:02:20.919Z,7.2
2022-10-23T07:03:20.936Z,7.2
2022-10-23T07:04:20.942Z,7.2
2022-10-23T07:05:20.942Z,7.2
2022-10-23T07:06:20.926Z,7.2
2022-10-23T07:07:20.938Z,7.3
2022-10-23T07:08:20.933Z,7.3
2022-10-23T07:09:20.924Z,7.3
2022-10-23T07:10:20.919Z,7.3
2022-10-23T07:11:20.910Z,7.3
2022-10-23T07:12:20.912Z,7.3
2022-10-23T07:13:20.934Z,7.2
2022-10-23T07:14:20.943Z,7.2
2022-10-23T07:15:20.958Z,7.2
2022-10-23T07:16:20.903Z,7.2
2022-10-23T07:17:20.920Z,7.2
2022-10-23T07:18:20.915Z,7.2
2022-10-23T07:19:20.915Z,7.2
2022-10-23T07:20:20.927Z,7.3
2022-10-23T07:21:20.924Z,7.3
2022-10-23T07:22:20.915Z,7.3
2022-10-23T07:23:20.918Z,7.3
2022-10-23T07:24:20.906Z,7.4
2022-10-23T07:25:20.922Z,7.4
2022-10-23T07:26:20.927Z,7.4
2022-10-23T07:27:20.919Z,7.4
2022-10-23T07:28:20.926Z,7.4
2022-10-23T07:29:20.944Z,7.4
2022-10-23T07:30:20.934Z,7.4
2022-10-23T07:31:23.092Z,7.4
2022-10-23T07:32:20.928Z,7.4
2022-10-23T07:33:20.957Z,7.4
2022-10-23T07:34:20.929Z,7.4
2022-10-23T07:35:20.934Z,7.4
2022-10-23T07:36:20.932Z,7.4
2022-10-23T07:37:20.955Z,7.4
2022-10-23T07:38:20.934Z,7.4
2022-10-23T07:39:20.928Z,7.4
2022-10-23T07:40:20.948Z,7.4
2022-10-23T07:41:20.934Z,7.4
2022-10-23T07:42:20.937Z,7.4
2022-10-23T07:43:21.122Z,7.4
2022-10-23T07:44:21.965Z,7.4
2022-10-23T07:45:20.958Z,7.5
2022-10-23T07:46:20.926Z,7.5
2022-10-23T07:47:20.966Z,7.6
2022-10-23T07:48:20.927Z,7.6
2022-10-23T07:49:20.933Z,7.6
2022-10-23T07:50:20.941Z,7.6
2022-10-23T07:51:20.949Z,7.6
2022-10-23T07:52:20.937Z,7.7
2022-10-23T07:53:20.930Z,7.7
2022-10-23T07:54:20.946Z,7.7
2022-10-23T07:55:20.946Z,7.7
2022-10-23T07:56:20.940Z,7.7
2022-10-23T07:57:20.937Z,7.7
2022-10-23T07:58:20.942Z,7.7
2022-10-23T07:59:20.940Z,7.7
2022-10-23T08:00:20.962Z,7.8
2022-10-23T08:01:21.001Z,7.8
2022-10-23T08:02:20.979Z,7.8
2022-10-23T08:03:20.969Z,7.8
2022-10-23T08:04:20.927Z,7.8
2022-10-23T08:05:20.948Z,7.9
2022-10-23T08:06:20.937Z,7.9
2022-10-23T08:07:20.938Z,7.9
2022-10-23T08:08:20.954Z,7.9
2022-10-23T08:09:20.970Z,8
2022-10-23T08:10:20.960Z,8
2022-10-23T08:11:20.968Z,8
2022-10-23T08:12:20.963Z,8
2022-10-23T08:13:20.970Z,8
2022-10-23T08:14:20.977Z,8.1
2022-10-23T08:15:20.980Z,8.1
2022-10-23T08:16:20.990Z,8.1
2022-10-23T08:17:22.210Z,8.1
2022-10-23T08:18:20.969Z,8.2
2022-10-23T08:19:20.994Z,8.2
2022-10-23T08:20:20.972Z,8.2
2022-10-23T08:21:20.994Z,8.2
2022-10-23T08:22:20.968Z,8.2
2022-10-23T08:23:20.985Z,8.3
2022-10-23T08:24:20.978Z,8.3
2022-10-23T08:25:24.733Z,8.3
2022-10-23T08:26:20.971Z,8.3
2022-10-23T08:27:20.993Z,8.4
2022-10-23T08:28:20.965Z,8.4
2022-10-23T08:29:20.971Z,8.4
2022-10-23T08:30:20.990Z,8.4
2022-10-23T08:31:20.988Z,8.4
2022-10-23T08:32:20.983Z,8.5
2022-10-23T08:33:20.975Z,8.5
2022-10-23T08:34:20.976Z,8.5
2022-10-23T08:35:20.995Z,8.5
2022-10-23T08:36:20.991Z,8.5
2022-10-23T08:37:20.986Z,8.5
2022-10-23T08:38:20.968Z,8.5
2022-10-23T08:39:20.966Z,8.6
2022-10-23T08:40:21.003Z,8.6
2022-10-23T08:41:20.973Z,8.6
2022-10-23T08:42:20.989Z,8.6
2022-10-23T08:43:20.979Z,8.7
2022-10-23T08:44:20.979Z,8.7
2022-10-23T08:45:20.997Z,8.7
2022-10-23T08:46:20.979Z,8.8
2022-10-23T08:47:21.008Z,8.8
2022-10-23T08:48:20.986Z,8.8
2022-10-23T08:49:20.996Z,8.9
2022-10-23T08:50:21.038Z,8.9
2022-10-23T08:51:20.996Z,8.9
2022-10-23T08:52:20.989Z,9
2022-10-23T08:53:20.974Z,9
2022-10-23T08:54:20.983Z,9.1
2022-10-23T08:55:20.985Z,9.1
2022-10-23T08:56:20.991Z,9.2
2022-10-23T08:57:20.982Z,9.2
2022-10-23T08:58:20.985Z,9.3
2022-10-23T08:59:20.995Z,9.3
2022-10-23T09:00:21.014Z,9.4
2022-10-23T09:01:21.126Z,9.5
2022-10-23T09:02:21.080Z,9.5
2022-10-23T09:03:21.115Z,9.6
2022-10-23T09:04:20.983Z,9.6
2022-10-23T09:05:21.005Z,9.7
2022-10-23T09:06:20.973Z,9.8
2022-10-23T09:07:21.032Z,9.8
2022-10-23T09:08:20.971Z,9.8
2022-10-23T09:09:20.991Z,9.9
2022-10-23T09:10:21.025Z,9.9
2022-10-23T09:11:21.006Z,10
2022-10-23T09:12:21.005Z,10
2022-10-23T09:13:20.983Z,10.1
2022-10-23T09:14:20.983Z,10.2
2022-10-23T09:15:21.006Z,10.2
2022-10-23T09:16:20.994Z,10.3
2022-10-23T09:17:20.995Z,10.3
2022-10-23T09:18:20.985Z,10.4
2022-10-23T09:19:20.997Z,10.5
2022-10-23T09:20:21.001Z,10.5
2022-10-23T09:21:21.005Z,10.6
2022-10-23T09:22:20.997Z,10.7
2022-10-23T09:23:21.031Z,10.7
2022-10-23T09:24:21.005Z,10.8
2022-10-23T09:25:21.028Z,10.8
2022-10-23T09:26:21.008Z,10.9
2022-10-23T09:27:21.023Z,11
2022-10-23T09:28:21.005Z,11.1
2022-10-23T09:29:20.991Z,11.1
2022-10-23T09:30:21.010Z,11.2
2022-10-23T09:31:21.017Z,11.3
2022-10-23T09:32:21.003Z,11.3
2022-10-23T09:33:21.033Z,11.4
2022-10-23T09:34:21.030Z,11.5
2022-10-23T09:35:21.005Z,11.5
2022-10-23T09:36:20.995Z,11.6
2022-10-23T09:37:21.259Z,11.6
2022-10-23T09:38:21.014Z,11.7
2022-10-23T09:39:21.028Z,11.7
2022-10-23T09:40:20.998Z,11.8
2022-10-23T09:41:21.009Z,11.8
2022-10-23T09:42:21.004Z,11.9
2022-10-23T09:43:21.007Z,11.9
2022-10-23T09:44:21.025Z,12
2022-10-23T09:45:21.041Z,12.1
2022-10-23T09:46:21.022Z,12.1
2022-10-23T09:47:21.031Z,12.2
2022-10-23T09:48:20.996Z,12.2
2022-10-23T09:49:21.005Z,12.3
2022-10-23T09:50:21.046Z,12.4
2022-10-23T09:51:21.024Z,12.4
2022-10-23T09:52:21.029Z,12.5
2022-10-23T09:53:21.008Z,12.5
2022-10-23T09:54:21.009Z,12.6
2022-10-23T09:55:21.071Z,12.7
2022-10-23T09:56:24.298Z,12.7
2022-10-23T09:57:21.017Z,12.7
2022-10-23T09:58:21.020Z,12.8
2022-10-23T09:59:21.012Z,12.9
2022-10-23T10:00:21.035Z,12.9
2022-10-23T10:01:21.182Z,12.9
2022-10-23T10:02:21.083Z,13
2022-10-23T10:03:21.019Z,13.1
2022-10-23T10:04:21.028Z,13.1
2022-10-23T10:05:21.030Z,13.2
2022-10-23T10:06:21.019Z,13.3
2022-10-23T10:07:21.022Z,13.3
2022-10-23T10:08:21.173Z,13.4
2022-10-23T10:09:21.046Z,13.4
2022-10-23T10:10:21.045Z,13.5
2022-10-23T10:11:21.056Z,13.5
2022-10-23T10:12:21.012Z,13.6
2022-10-23T10:13:21.022Z,13.6
2022-10-23T10:14:21.014Z,13.7
2022-10-23T10:15:21.040Z,13.7
2022-10-23T10:16:21.030Z,13.8
2022-10-23T10:17:21.040Z,13.8
2022-10-23T10:18:21.033Z,13.9
2022-10-23T10:19:21.061Z,13.9
2022-10-23T10:20:21.062Z,13.9
2022-10-23T10:21:21.040Z,14
2022-10-23T10:22:21.033Z,14.1
2022-10-23T10:23:21.052Z,14.1
2022-10-23T10:24:21.058Z,14.2
2022-10-23T10:25:21.045Z,14.3
2022-10-23T10:26:21.100Z,14.3
2022-10-23T10:27:21.091Z,14.4
2022-10-23T10:28:21.047Z,14.5
2022-10-23T10:29:21.045Z,14.5
2022-10-23T10:30:21.063Z,14.6
2022-10-23T10:31:21.058Z,14.6
2022-10-23T10:32:21.042Z,14.7
2022-10-23T10:33:21.086Z,14.8
2022-10-23T10:34:21.058Z,14.8
2022-10-23T10:35:21.075Z,14.8
2022-10-23T10:36:21.105Z,14.9
2022-10-23T10:37:21.082Z,14.9
2022-10-23T10:38:21.058Z,15
2022-10-23T10:39:21.057Z,15
2022-10-23T10:40:21.077Z,15.1
2022-10-23T10:41:21.120Z,15.1
2022-10-23T10:42:21.062Z,15.1
2022-10-23T10:43:21.077Z,15.2
2022-10-23T10:44:21.065Z,15.2
2022-10-23T10:45:21.092Z,15.3
2022-10-23T10:46:21.048Z,15.4
2022-10-23T10:47:21.306Z,15.4
2022-10-23T10:48:21.130Z,15.5
2022-10-23T10:49:21.068Z,15.5
2022-10-23T10:50:21.067Z,15.6
2022-10-23T10:51:21.042Z,15.7
2022-10-23T10:52:21.055Z,15.7
2022-10-23T10:53:21.070Z,15.7
2022-10-23T10:54:21.066Z,15.8
2022-10-23T10:55:21.071Z,15.8
2022-10-23T10:56:21.065Z,15.9
2022-10-23T10:57:21.076Z,15.9
2022-10-23T10:58:21.058Z,16
2022-10-23T10:59:21.103Z,16
2022-10-23T11:00:21.085Z,16
2022-10-23T11:01:21.170Z,16.1
2022-10-23T11:02:21.123Z,16.1
2022-10-23T11:03:21.057Z,16.1
2022-10-23T11:04:21.061Z,16.2
2022-10-23T11:05:21.076Z,16.2
2022-10-23T11:06:21.091Z,16.3
2022-10-23T11:07:21.085Z,16.3
2022-10-23T11:08:21.096Z,16.4
2022-10-23T11:09:21.273Z,16.5
2022-10-23T11:10:21.099Z,16.5
2022-10-23T11:11:21.077Z,16.6
2022-10-23T11:12:21.065Z,16.6
2022-10-23T11:13:21.068Z,16.7
2022-10-23T11:14:21.080Z,16.7
2022-10-23T11:15:21.109Z,16.7
2022-10-23T11:16:21.075Z,16.8
2022-10-23T11:17:21.067Z,16.8
2022-10-23T11:18:21.091Z,16.8
2022-10-23T11:19:21.074Z,16.8
2022-10-23T11:20:21.075Z,16.9
2022-10-23T11:21:21.073Z,16.9
2022-10-23T11:22:21.105Z,16.9
2022-10-23T11:23:21.085Z,16.9
2022-10-23T11:24:21.082Z,16.9
2022-10-23T11:25:21.072Z,16.9
2022-10-23T11:26:21.069Z,16.9
2022-10-23T11:27:21.069Z,16.9
2022-10-23T11:28:21.073Z,16.9
2022-10-23T11:29:21.098Z,17
2022-10-23T11:30:21.082Z,17
2022-10-23T11:31:21.094Z,17.1
2022-10-23T11:32:21.108Z,17.1
2022-10-23T11:33:21.077Z,17.1
2022-10-23T11:34:21.075Z,17.2
2022-10-23T11:35:21.088Z,17.2
2022-10-23T11:36:21.075Z,17.3
2022-10-23T11:37:21.116Z,17.3
2022-10-23T11:38:21.071Z,17.4
2022-10-23T11:39:21.114Z,17.4
2022-10-23T11:40:21.158Z,17.5
2022-10-23T11:41:22.370Z,17.5
2022-10-23T11:42:21.111Z,17.5
2022-10-23T11:43:21.111Z,17.5
2022-10-23T11:44:21.136Z,17.6
2022-10-23T11:45:21.089Z,17.6
2022-10-23T11:46:21.079Z,17.6
2022-10-23T11:47:21.148Z,17.7
2022-10-23T11:48:21.078Z,17.7
2022-10-23T11:49:21.113Z,17.7
2022-10-23T11:50:21.094Z,17.7
2022-10-23T11:51:21.093Z,17.7
2022-10-23T11:52:21.122Z,17.8
2022-10-23T11:53:21.417Z,17.8
2022-10-23T11:54:21.117Z,17.8
2022-10-23T11:55:21.099Z,17.9
2022-10-23T11:56:21.108Z,17.9
2022-10-23T11:57:21.189Z,18
2022-10-23T11:58:21.118Z,18
2022-10-23T11:59:21.117Z,18.1
2022-10-23T12:00:21.108Z,18.1
2022-10-23T12:01:21.149Z,18.1
2022-10-23T12:02:21.156Z,18.2
2022-10-23T12:03:21.130Z,18.2
2022-10-23T12:04:21.138Z,18.3
2022-10-23T12:05:21.101Z,18.3
2022-10-23T12:06:21.122Z,18.4
2022-10-23T12:07:21.105Z,18.4
2022-10-23T12:08:21.115Z,18.4
2022-10-23T12:09:21.130Z,18.5
2022-10-23T12:10:21.136Z,18.5
2022-10-23T12:11:24.283Z,18.5
2022-10-23T12:12:21.129Z,18.5
2022-10-23T12:13:21.109Z,18.5
2022-10-23T12:14:21.114Z,18.6
2022-10-23T12:15:21.111Z,18.6
2022-10-23T12:16:21.113Z,18.6
2022-10-23T12:17:21.129Z,18.6
2022-10-23T12:18:21.123Z,18.7
2022-10-23T12:19:21.162Z,18.8
2022-10-23T12:20:21.126Z,18.8
2022-10-23T12:21:21.146Z,18.9
2022-10-23T12:22:21.151Z,18.9
2022-10-23T12:23:21.124Z,18.9
2022-10-23T12:24:21.144Z,19
2022-10-23T12:25:21.115Z,19
2022-10-23T12:26:21.115Z,19
2022-10-23T12:27:21.117Z,19
2022-10-23T12:28:21.115Z,19.1
2022-10-23T12:29:21.156Z,19.1
2022-10-23T12:30:21.122Z,19.1
2022-10-23T12:31:21.132Z,19.1
2022-10-23T12:32:21.110Z,19.1
2022-10-23T12:33:21.129Z,19
2022-10-23T12:34:21.131Z,19
2022-10-23T12:35:21.143Z,19
2022-10-23T12:36:21.118Z,19
2022-10-23T12:37:21.116Z,19
2022-10-23T12:38:21.136Z,19
2022-10-23T12:39:21.152Z,19
2022-10-23T12:40:21.127Z,19
2022-10-23T12:41:21.107Z,19
2022-10-23T12:42:21.139Z,19
2022-10-23T12:43:21.150Z,19
2022-10-23T12:44:21.118Z,19
2022-10-23T12:45:21.113Z,19
2022-10-23T12:46:21.135Z,19
2022-10-23T12:47:21.104Z,19.1
2022-10-23T12:48:21.142Z,19.1
2022-10-23T12:49:21.143Z,19.1
2022-10-23T12:50:21.150Z,19
2022-10-23T12:51:21.148Z,19
2022-10-23T12:52:21.129Z,19
2022-10-23T12:53:21.129Z,19
2022-10-23T12:54:21.172Z,19
2022-10-23T12:55:21.149Z,19
2022-10-23T12:56:21.171Z,18.9
2022-10-23T12:57:21.159Z,18.9
2022-10-23T12:58:21.160Z,18.9
2022-10-23T12:59:21.160Z,18.9
2022-10-23T13:00:21.142Z,18.9
2022-10-23T13:01:21.201Z,18.9
2022-10-23T13:02:21.235Z,18.9
2022-10-23T13:03:21.168Z,18.9
2022-10-23T13:04:21.197Z,18.9
2022-10-23T13:05:21.145Z,18.9
2022-10-23T13:06:21.157Z,18.9
2022-10-23T13:07:21.166Z,18.9
2022-10-23T13:08:21.154Z,18.9
2022-10-23T13:09:21.161Z,18.9
2022-10-23T13:10:21.148Z,19
2022-10-23T13:11:21.165Z,19
2022-10-23T13:12:21.140Z,19
2022-10-23T13:13:21.151Z,19
2022-10-23T13:14:21.153Z,19
2022-10-23T13:15:21.172Z,19.1
2022-10-23T13:16:21.281Z,19.1
2022-10-23T13:17:21.140Z,19.1
2022-10-23T13:18:21.154Z,19.2
2022-10-23T13:19:21.277Z,19.2
2022-10-23T13:20:21.155Z,19.3
2022-10-23T13:21:21.168Z,19.3
2022-10-23T13:22:21.166Z,19.4
2022-10-23T13:23:21.183Z,19.5
2022-10-23T13:24:21.195Z,19.6
2022-10-23T13:25:21.158Z,19.7
2022-10-23T13:26:21.159Z,19.8
2022-10-23T13:27:21.162Z,19.9
2022-10-23T13:28:21.162Z,20
2022-10-23T13:29:21.259Z,20.1
2022-10-23T13:30:21.171Z,20.3
2022-10-23T13:31:21.160Z,20.3
2022-10-23T13:32:21.153Z,20.5
2022-10-23T13:33:21.167Z,20.5
2022-10-23T13:34:21.164Z,20.6
2022-10-23T13:35:22.139Z,20.7
2022-10-23T13:36:21.161Z,20.7
2022-10-23T13:37:21.150Z,20.8
2022-10-23T13:38:21.199Z,20.8
2022-10-23T13:39:21.230Z,20.8
2022-10-23T13:40:21.167Z,20.9
2022-10-23T13:41:21.165Z,20.9
2022-10-23T13:42:21.200Z,20.9
2022-10-23T13:43:21.186Z,20.9
2022-10-23T13:44:21.192Z,21
2022-10-23T13:45:21.162Z,21
2022-10-23T13:46:21.168Z,21
2022-10-23T13:47:21.165Z,21